Time;durP1;ratioP1;P1;durP2;ratioP2;P2;SDS_P1;SDS_P2;PMS_P1;PMS_P2;Temp;Humidity;BMP_temperature;BMP_pressure;BME280_temperature;BME280_humidity;BME280_pressure;Samples;Min_cycle;Max_cycle;Signal;HPM_P1;HPM_P2
2023/06/22 00:00:53;;;;;;;7.53;5.88;;;20.50;63.40;;;;;;5074017;28;20403;-69
2023/06/22 00:03:20;;;;;;;7.53;5.97;;;20.40;63.40;;;;;;5057146;28;20443;-69
2023/06/22 00:05:46;;;;;;;7.72;5.35;;;20.50;63.50;;;;;;5073761;28;20051;-69
2023/06/22 00:08:13;;;;;;;6.72;6.13;;;20.40;63.40;;;;;;5074088;28;20048;-69
2023/06/22 00:10:39;;;;;;;7.07;6.28;;;20.40;63.50;;;;;;5073527;28;20086;-69
2023/06/22 00:13:06;;;;;;;6.40;5.80;;;20.40;63.60;;;;;;5073105;28;20040;-69
2023/06/22 00:15:32;;;;;;;6.45;4.93;;;20.40;63.60;;;;;;5074025;28;20048;-69
2023/06/22 00:17:58;;;;;;;6.53;5.85;;;20.40;63.40;;;;;;5073268;28;20056;-69
2023/06/22 00:20:27;;;;;;;5.55;4.85;;;20.40;63.50;;;;;;5073783;28;20032;-69
2023/06/22 00:22:54;;;;;;;6.90;6.20;;;20.30;63.40;;;;;;5073482;28;20036;-69
2023/06/22 00:25:20;;;;;;;8.20;6.15;;;20.30;63.40;;;;;;5074991;28;20483;-69
2023/06/22 00:27:46;;;;;;;7.82;7.03;;;20.30;63.50;;;;;;5073373;28;20040;-69
2023/06/22 00:30:12;;;;;;;5.93;4.57;;;20.30;63.70;;;;;;5073184;28;20090;-69
2023/06/22 00:32:37;;;;;;;5.65;4.78;;;20.20;63.60;;;;;;5074773;28;20039;-69
2023/06/22 00:35:03;;;;;;;6.25;5.30;;;20.20;63.50;;;;;;5073276;28;20491;-69
2023/06/22 00:37:29;;;;;;;7.35;5.57;;;20.20;63.50;;;;;;5073295;28;20033;-67
2023/06/22 00:39:58;;;;;;;8.18;6.15;;;20.20;63.60;;;;;;5090180;28;20472;-67
2023/06/22 00:42:24;;;;;;;9.13;6.05;;;20.20;63.80;;;;;;5073246;28;20391;-67
2023/06/22 00:44:50;;;;;;;8.68;6.70;;;20.20;63.70;;;;;;5072947;28;20036;-67
2023/06/22 00:47:17;;;;;;;6.18;5.57;;;20.20;63.70;;;;;;5072984;28;20076;-67
2023/06/22 00:49:44;;;;;;;7.03;5.53;;;20.20;63.80;;;;;;5056390;28;20387;-67
2023/06/22 00:52:13;;;;;;;6.28;4.72;;;20.10;63.70;;;;;;5072731;28;20041;-67
2023/06/22 00:54:45;;;;;;;4.75;3.65;;;20.10;63.60;;;;;;5072944;28;20189;-67
2023/06/22 00:57:15;;;;;;;4.85;3.70;;;20.10;63.60;;;;;;5072843;28;20043;-67
2023/06/22 00:59:47;;;;;;;4.82;4.18;;;20.10;63.70;;;;;;5072613;28;20048;-66
2023/06/22 01:02:13;;;;;;;6.50;4.28;;;20.00;63.70;;;;;;5072651;28;20123;-67
2023/06/22 01:04:40;;;;;;;6.15;5.55;;;20.00;63.90;;;;;;5072530;28;20119;-67
2023/06/22 01:07:14;;;;;;;9.75;8.10;;;20.00;64.40;;;;;;5073064;28;20432;-67
2023/06/22 01:10:06;;;;;;;7.63;6.82;;;19.90;64.70;;;;;;5072734;28;20044;-67
2023/06/22 01:12:39;;;;;;;4.85;4.25;;;19.90;64.90;;;;;;5071587;28;20483;-66
2023/06/22 01:15:19;;;;;;;10.85;9.50;;;19.80;64.80;;;;;;5073604;28;20070;-67
2023/06/22 01:17:48;;;;;;;5.57;5.07;;;19.70;65.10;;;;;;5072158;28;20529;-67
2023/06/22 01:20:16;;;;;;;7.90;6.75;;;19.70;65.30;;;;;;5072299;28;20520;-67
2023/06/22 01:23:07;;;;;;;9.70;8.27;;;19.60;65.50;;;;;;5072150;28;20033;-67
2023/06/22 01:25:47;;;;;;;9.95;8.98;;;19.60;65.80;;;;;;5072359;28;20059;-67
2023/06/22 01:28:42;;;;;;;9.13;8.23;;;19.50;66.40;;;;;;5072450;28;20120;-67
2023/06/22 01:31:08;;;;;;;;;;;19.50;66.70;;;;;;5067076;28;20036;-67
2023/06/22 01:33:38;;;;;;;8.15;7.45;;;19.40;66.20;;;;;;5072161;28;20271;-67
2023/06/22 01:36:06;;;;;;;11.10;10.00;;;19.30;66.70;;;;;;5071818;28;20491;-67
2023/06/22 01:38:33;;;;;;;7.63;6.80;;;19.30;67.00;;;;;;5071904;28;20036;-66
2023/06/22 01:41:00;;;;;;;6.32;5.72;;;19.30;67.10;;;;;;5071945;28;20041;-67
2023/06/22 01:43:28;;;;;;;9.77;8.90;;;19.30;67.30;;;;;;5071685;28;20040;-67
2023/06/22 01:45:59;;;;;;;9.30;8.40;;;19.20;67.70;;;;;;5054637;28;20496;-66
2023/06/22 01:48:25;;;;;;;10.70;9.65;;;19.20;68.00;;;;;;5071894;28;20044;-67
2023/06/22 01:50:53;;;;;;;10.20;8.93;;;19.20;68.20;;;;;;5071392;28;20119;-67
2023/06/22 01:53:21;;;;;;;11.02;10.02;;;19.20;68.40;;;;;;5071809;28;20101;-67
2023/06/22 01:55:47;;;;;;;11.68;10.57;;;19.20;68.50;;;;;;5069546;28;20123;-67
2023/06/22 01:58:13;;;;;;;10.05;9.05;;;19.10;68.60;;;;;;5071661;28;20461;-67
2023/06/22 02:00:42;;;;;;;13.65;12.25;;;19.10;68.50;;;;;;5071755;28;20057;-68
2023/06/22 02:03:16;;;;;;;6.47;5.88;;;19.10;68.60;;;;;;5063605;28;20062;-70
2023/06/22 02:05:50;;;;;;;6.22;5.63;;;19.10;68.70;;;;;;5053784;28;20041;-70
2023/06/22 02:08:25;;;;;;;9.55;8.65;;;19.10;68.30;;;;;;5071502;28;20044;-70
2023/06/22 02:10:52;;;;;;;6.75;6.07;;;19.10;68.40;;;;;;5071494;28;20441;-69
2023/06/22 02:13:19;;;;;;;8.15;6.72;;;19.10;68.30;;;;;;5071158;28;20044;-69
2023/06/22 02:15:47;;;;;;;8.77;7.30;;;19.10;68.20;;;;;;5071906;28;20107;-69
2023/06/22 02:18:13;;;;;;;7.40;6.60;;;19.10;68.10;;;;;;5071071;28;20056;-69
2023/06/22 02:20:39;;;;;;;8.63;7.82;;;19.10;68.00;;;;;;5071510;28;20036;-69
2023/06/22 02:23:06;;;;;;;6.38;5.78;;;19.10;67.90;;;;;;5071080;28;20032;-69
2023/06/22 02:25:33;;;;;;;7.65;6.95;;;19.10;67.70;;;;;;5071285;28;20040;-69
2023/06/22 02:27:59;;;;;;;7.72;7.03;;;19.10;67.60;;;;;;5071373;28;20036;-69
2023/06/22 02:30:25;;;;;;;7.38;6.00;;;19.10;67.60;;;;;;5070928;28;20544;-69
2023/06/22 02:32:58;;;;;;;7.22;6.20;;;19.10;67.60;;;;;;5054575;28;20163;-69
2023/06/22 02:35:31;;;;;;;7.40;6.70;;;19.10;67.50;;;;;;5071351;28;20067;-68
2023/06/22 02:37:59;;;;;;;6.55;5.95;;;19.10;67.50;;;;;;5071404;28;20128;-68
2023/06/22 02:40:25;;;;;;;6.53;5.93;;;19.10;67.40;;;;;;5065426;28;20475;-68
2023/06/22 02:42:51;;;;;;;6.53;6.03;;;19.10;67.40;;;;;;5071129;28;20071;-68
2023/06/22 02:45:16;;;;;;;5.57;5.03;;;19.00;67.40;;;;;;5054155;28;20091;-68
2023/06/22 02:47:42;;;;;;;5.40;4.93;;;19.10;67.40;;;;;;5071154;28;20090;-68
2023/06/22 02:50:08;;;;;;;5.80;5.30;;;19.00;67.40;;;;;;5070973;28;20037;-68
2023/06/22 02:52:34;;;;;;;5.45;4.97;;;19.00;67.50;;;;;;5071001;28;20476;-68
2023/06/22 02:55:00;;;;;;;6.75;6.05;;;19.00;67.40;;;;;;5071209;28;20070;-68
2023/06/22 02:57:25;;;;;;;6.25;5.72;;;19.00;67.90;;;;;;5055183;28;20127;-68
2023/06/22 02:59:51;;;;;;;6.60;5.43;;;19.00;67.60;;;;;;5075106;28;20108;-68
2023/06/22 03:02:17;;;;;;;6.28;5.78;;;18.90;67.50;;;;;;5058608;28;20040;-68
2023/06/22 03:04:44;;;;;;;5.20;4.70;;;18.90;67.60;;;;;;5074924;28;20044;-69
2023/06/22 03:07:09;;;;;;;6.07;4.45;;;18.90;67.60;;;;;;5075000;28;20074;-68
2023/06/22 03:09:35;;;;;;;6.40;5.80;;;18.90;67.60;;;;;;5074527;28;20131;-68
2023/06/22 03:12:02;;;;;;;5.07;4.15;;;18.90;67.60;;;;;;5058484;28;20032;-68
2023/06/22 03:14:27;;;;;;;5.70;5.20;;;18.90;67.70;;;;;;5074707;28;20118;-68
2023/06/22 03:16:53;;;;;;;7.50;6.90;;;18.80;67.60;;;;;;5074934;28;20487;-68
2023/06/22 03:19:21;;;;;;;5.93;5.43;;;18.80;67.80;;;;;;5074094;28;20056;-68
2023/06/22 03:21:47;;;;;;;7.20;6.50;;;18.80;67.90;;;;;;5074773;28;20052;-68
2023/06/22 03:24:12;;;;;;;4.95;4.55;;;18.80;68.10;;;;;;5074331;28;20045;-68
2023/06/22 03:26:38;;;;;;;5.78;5.28;;;18.80;68.00;;;;;;5074541;28;20082;-68
2023/06/22 03:29:04;;;;;;;6.50;6.00;;;18.80;67.90;;;;;;5074340;28;20074;-68
2023/06/22 03:31:29;;;;;;;8.32;7.63;;;18.80;67.90;;;;;;5074828;28;20132;-68
2023/06/22 03:33:55;;;;;;;4.60;4.20;;;18.80;68.00;;;;;;5074342;28;20037;-68
2023/06/22 03:36:22;;;;;;;6.25;5.20;;;18.80;67.90;;;;;;5074399;28;20084;-68
2023/06/22 03:38:49;;;;;;;6.80;6.20;;;18.80;67.90;;;;;;5073995;28;20037;-68
2023/06/22 03:41:14;;;;;;;5.85;5.35;;;18.70;67.80;;;;;;5074565;28;20094;-68
2023/06/22 03:43:40;;;;;;;7.30;6.60;;;18.80;67.90;;;;;;5057432;28;20472;-68
2023/06/22 03:46:06;;;;;;;8.95;8.20;;;18.70;67.90;;;;;;5074369;28;20036;-68
2023/06/22 03:48:32;;;;;;;11.15;10.23;;;18.80;68.00;;;;;;5073755;28;20048;-68
2023/06/22 03:50:59;;;;;;;8.57;7.78;;;18.70;68.10;;;;;;5057372;28;20055;-66
2023/06/22 03:53:25;;;;;;;10.52;9.63;;;18.70;68.50;;;;;;5074081;28;20422;-66
2023/06/22 03:55:52;;;;;;;13.43;12.23;;;18.70;68.60;;;;;;5074275;28;20052;-67
2023/06/22 03:58:19;;;;;;;8.00;7.30;;;18.70;68.90;;;;;;5073938;28;20058;-67
2023/06/22 04:00:49;;;;;;;8.05;7.25;;;18.70;69.00;;;;;;5073708;28;20123;-66
2023/06/22 04:03:15;;;;;;;7.38;6.70;;;18.60;68.80;;;;;;5073856;28;20041;-66
2023/06/22 04:05:41;;;;;;;11.88;10.80;;;18.60;68.90;;;;;;5074761;28;20036;-66
2023/06/22 04:08:08;;;;;;;10.30;9.40;;;18.60;68.90;;;;;;5073840;28;20123;-66
2023/06/22 04:10:34;;;;;;;11.48;10.48;;;18.60;69.10;;;;;;5073665;28;20395;-66
2023/06/22 04:13:00;;;;;;;11.85;10.68;;;18.60;69.20;;;;;;5057219;28;20032;-67
2023/06/22 04:15:26;;;;;;;11.48;10.32;;;18.50;69.20;;;;;;5073680;28;20044;-66
2023/06/22 04:17:52;;;;;;;9.15;8.35;;;18.60;69.40;;;;;;5072916;28;20086;-66
2023/06/22 04:20:17;;;;;;;11.23;10.25;;;18.60;69.30;;;;;;5073162;28;20049;-66
2023/06/22 04:22:43;;;;;;;10.45;9.65;;;18.50;69.30;;;;;;5074669;28;20068;-66
2023/06/22 04:25:09;;;;;;;7.35;6.75;;;18.50;69.40;;;;;;5073791;28;20051;-66
2023/06/22 04:27:40;;;;;;;9.18;8.38;;;18.50;69.30;;;;;;5073451;28;20496;-66
2023/06/22 04:30:07;;;;;;;10.35;9.48;;;18.50;69.40;;;;;;5073225;28;20123;-66
2023/06/22 04:32:35;;;;;;;9.65;8.82;;;18.50;69.40;;;;;;5056559;28;20063;-66
2023/06/22 04:35:04;;;;;;;11.35;10.25;;;18.50;69.40;;;;;;5065669;28;20056;-66
2023/06/22 04:37:30;;;;;;;11.38;10.38;;;18.50;69.40;;;;;;5073200;28;20079;-66
2023/06/22 04:39:56;;;;;;;13.15;11.95;;;18.50;69.60;;;;;;5074037;28;20391;-67
2023/06/22 04:42:22;;;;;;;16.15;14.75;;;18.50;69.70;;;;;;5073512;28;20032;-67
2023/06/22 04:44:48;;;;;;;18.23;16.52;;;18.50;70.10;;;;;;5072884;28;20124;-66
2023/06/22 04:47:14;;;;;;;17.77;16.25;;;18.50;70.50;;;;;;5073172;28;20036;-66
2023/06/22 04:49:43;;;;;;;16.00;14.60;;;18.50;71.00;;;;;;5073038;28;20121;-66
2023/06/22 04:52:11;;;;;;;16.60;15.07;;;18.40;71.20;;;;;;5073133;28;20049;-66
2023/06/22 04:54:38;;;;;;;16.88;14.63;;;18.40;71.60;;;;;;5072896;28;20036;-67
2023/06/22 04:57:09;;;;;;;15.55;13.98;;;18.40;71.90;;;;;;5064967;28;20036;-66
2023/06/22 04:59:36;;;;;;;17.92;16.25;;;18.40;72.20;;;;;;5072499;28;20106;-66
2023/06/22 05:02:02;;;;;;;22.80;20.60;;;18.40;72.40;;;;;;5071919;28;20041;-66
2023/06/22 05:04:32;;;;;;;21.30;19.30;;;18.40;72.80;;;;;;5074139;28;20040;-66
2023/06/22 05:07:02;;;;;;;19.98;18.08;;;18.40;73.30;;;;;;5072746;28;20404;-66
2023/06/22 05:09:28;;;;;;;19.52;17.73;;;18.40;73.60;;;;;;5072738;28;20040;-67
2023/06/22 05:11:56;;;;;;;21.15;18.80;;;18.50;73.80;;;;;;5071971;28;20044;-68
2023/06/22 05:14:22;;;;;;;25.42;22.80;;;18.50;74.20;;;;;;5066407;28;20044;-68
2023/06/22 05:16:49;;;;;;;23.90;21.60;;;18.60;74.80;;;;;;5071620;28;20074;-68
2023/06/22 05:19:14;;;;;;;23.52;21.05;;;18.70;75.20;;;;;;5071820;28;20119;-68
2023/06/22 05:21:40;;;;;;;25.63;23.15;;;18.90;75.40;;;;;;5071793;28;20062;-68
2023/06/22 05:24:06;;;;;;;24.38;21.80;;;19.00;75.50;;;;;;5069801;28;20040;-68
2023/06/22 05:26:34;;;;;;;25.65;23.08;;;19.20;75.30;;;;;;5072169;28;20048;-69
2023/06/22 05:29:00;;;;;;;22.42;20.30;;;19.40;74.90;;;;;;5072049;28;20049;-69
2023/06/22 05:31:26;;;;;;;24.83;22.33;;;19.70;74.70;;;;;;5072186;28;20056;-69
2023/06/22 05:33:54;;;;;;;25.52;22.80;;;19.90;74.20;;;;;;5073453;28;20044;-69
2023/06/22 05:36:21;;;;;;;24.27;22.00;;;20.10;73.80;;;;;;5072000;28;20048;-69
2023/06/22 05:38:47;;;;;;;27.30;24.50;;;20.30;73.50;;;;;;5071998;28;20040;-68
2023/06/22 05:41:13;;;;;;;23.05;20.65;;;20.60;73.30;;;;;;5069334;28;20069;-69
2023/06/22 05:43:39;;;;;;;25.05;22.52;;;20.80;72.50;;;;;;5068968;28;20048;-69
2023/06/22 05:46:05;;;;;;;23.02;20.80;;;21.00;72.20;;;;;;5070261;28;20090;-69
2023/06/22 05:48:31;;;;;;;22.80;20.40;;;21.30;71.40;;;;;;5071228;28;20033;-69
2023/06/22 05:50:57;;;;;;;25.00;22.60;;;21.60;70.50;;;;;;5071484;28;20044;-69
2023/06/22 05:53:23;;;;;;;24.92;22.52;;;21.80;70.00;;;;;;5072085;28;20040;-68
2023/06/22 05:55:49;;;;;;;26.08;23.38;;;22.00;69.50;;;;;;5071641;28;20527;-69
2023/06/22 05:58:14;;;;;;;23.75;21.38;;;22.20;68.90;;;;;;5071402;28;20079;-69
2023/06/22 06:00:41;;;;;;;21.13;18.92;;;22.40;68.10;;;;;;5071158;28;20115;-69
2023/06/22 06:03:08;;;;;;;25.00;22.52;;;22.50;67.70;;;;;;5071439;28;20035;-69
2023/06/22 06:05:34;;;;;;;22.92;20.50;;;22.70;67.00;;;;;;5071809;28;20391;-69
2023/06/22 06:08:01;;;;;;;24.42;21.92;;;22.80;66.70;;;;;;5070260;28;20048;-69
2023/06/22 06:10:29;;;;;;;22.38;20.27;;;22.90;66.50;;;;;;5069394;28;20491;-69
2023/06/22 06:12:55;;;;;;;22.70;20.50;;;23.00;66.20;;;;;;5070625;28;20052;-69
2023/06/22 06:15:21;;;;;;;21.88;19.50;;;23.10;65.90;;;;;;5069351;28;20036;-69
2023/06/22 06:17:49;;;;;;;21.98;19.77;;;23.20;65.30;;;;;;5067586;28;20033;-69
2023/06/22 06:20:15;;;;;;;22.83;20.63;;;23.30;65.60;;;;;;5072322;28;20052;-69
2023/06/22 06:22:42;;;;;;;20.83;18.83;;;23.50;64.40;;;;;;5071464;28;20040;-69
2023/06/22 06:25:08;;;;;;;21.77;19.48;;;23.50;63.60;;;;;;5071545;28;20051;-69
2023/06/22 06:27:34;;;;;;;22.95;19.50;;;23.50;63.90;;;;;;5071750;28;20040;-69
2023/06/22 06:30:00;;;;;;;23.40;21.00;;;23.50;64.00;;;;;;5071731;28;20490;-69
2023/06/22 06:32:25;;;;;;;21.77;18.73;;;23.70;64.10;;;;;;5070478;28;20047;-68
2023/06/22 06:34:51;;;;;;;21.45;19.25;;;23.80;63.70;;;;;;5054854;28;20036;-68
2023/06/22 06:37:18;;;;;;;23.13;18.92;;;24.00;63.50;;;;;;5054499;28;20561;-68
2023/06/22 06:39:44;;;;;;;19.80;17.80;;;24.00;62.30;;;;;;5071203;28;20036;-68
2023/06/22 06:42:11;;;;;;;19.42;17.48;;;24.00;61.80;;;;;;5072327;28;20046;-68
2023/06/22 06:44:37;;;;;;;16.05;14.32;;;24.00;62.30;;;;;;5072620;28;20040;-68
2023/06/22 06:47:04;;;;;;;12.45;11.32;;;24.00;60.70;;;;;;5071483;28;20036;-68
2023/06/22 06:49:30;;;;;;;13.95;12.65;;;23.90;60.00;;;;;;5071020;28;20044;-68
2023/06/22 06:51:56;;;;;;;12.73;11.25;;;23.80;59.70;;;;;;5071047;28;20064;-68
2023/06/22 06:54:22;;;;;;;12.90;11.60;;;23.90;59.70;;;;;;5071271;28;20044;-68
2023/06/22 06:56:48;;;;;;;14.10;12.80;;;23.90;59.80;;;;;;5054445;28;20516;-68
2023/06/22 06:59:17;;;;;;;11.98;10.77;;;23.90;59.90;;;;;;5054287;28;20492;-68
2023/06/22 07:01:44;;;;;;;12.98;11.52;;;23.90;59.80;;;;;;5071249;28;20037;-68
2023/06/22 07:04:10;;;;;;;11.90;10.70;;;23.90;59.40;;;;;;5071443;28;20043;-68
2023/06/22 07:06:37;;;;;;;12.80;11.35;;;23.90;59.20;;;;;;5071366;28;20037;-68
2023/06/22 07:09:03;;;;;;;12.15;10.25;;;23.90;59.30;;;;;;5054270;28;20036;-68
2023/06/22 07:11:36;;;;;;;13.20;11.48;;;23.90;59.40;;;;;;5071183;28;20052;-69
2023/06/22 07:14:02;;;;;;;14.50;10.27;;;24.00;59.00;;;;;;5072315;28;20448;-69
2023/06/22 07:16:28;;;;;;;12.75;10.75;;;24.00;59.00;;;;;;5071142;28;20131;-69
2023/06/22 07:18:54;;;;;;;13.20;11.90;;;23.90;59.00;;;;;;5072073;28;20105;-69
2023/06/22 07:21:20;;;;;;;14.27;11.13;;;24.00;58.80;;;;;;5070527;28;20148;-69
2023/06/22 07:23:45;;;;;;;12.30;11.00;;;23.90;58.80;;;;;;5070788;28;20036;-69
2023/06/22 07:26:12;;;;;;;13.48;10.93;;;23.90;59.30;;;;;;5070794;28;20167;-69
2023/06/22 07:28:40;;;;;;;12.23;11.00;;;23.90;59.30;;;;;;5070745;28;20086;-69
2023/06/22 07:31:06;;;;;;;13.82;10.63;;;23.90;59.10;;;;;;5071086;28;20127;-69
2023/06/22 07:33:32;;;;;;;12.48;11.27;;;24.00;59.30;;;;;;5087547;28;20169;-69
2023/06/22 07:35:57;;;;;;;12.73;11.43;;;24.00;58.80;;;;;;5070820;28;20037;-69
2023/06/22 07:38:23;;;;;;;12.65;11.18;;;23.90;58.60;;;;;;5070435;28;20053;-69
2023/06/22 07:40:50;;;;;;;11.45;10.35;;;23.90;59.30;;;;;;5070655;28;20042;-69
2023/06/22 07:43:16;;;;;;;11.60;10.50;;;24.00;59.90;;;;;;5071287;28;20064;-69
2023/06/22 07:45:55;;;;;;;12.25;11.05;;;24.10;59.70;;;;;;5074256;28;20151;-69
2023/06/22 07:48:22;;;;;;;13.35;11.93;;;24.30;59.30;;;;;;5074538;28;20054;-69
2023/06/22 07:50:48;;;;;;;13.80;11.27;;;24.40;58.90;;;;;;5075363;28;20036;-69
2023/06/22 07:53:14;;;;;;;14.50;12.10;;;24.50;59.50;;;;;;5074529;28;20125;-68
2023/06/22 07:55:39;;;;;;;12.63;10.15;;;24.60;59.00;;;;;;5074310;28;20507;-68
2023/06/22 07:58:05;;;;;;;11.43;9.52;;;24.80;58.60;;;;;;5057690;28;20098;-68
2023/06/22 08:00:31;;;;;;;14.60;12.15;;;25.00;58.50;;;;;;5074259;28;20396;-68
2023/06/22 08:02:56;;;;;;;12.93;11.00;;;25.20;58.00;;;;;;5074112;28;20472;-68
2023/06/22 08:05:22;;;;;;;10.88;9.75;;;25.40;57.80;;;;;;5057729;28;20043;-68
2023/06/22 08:07:48;;;;;;;12.70;11.40;;;25.60;57.20;;;;;;5073814;28;20098;-68
2023/06/22 08:10:14;;;;;;;11.98;10.20;;;25.70;56.90;;;;;;5074062;28;20115;-69
2023/06/22 08:12:40;;;;;;;12.02;9.60;;;25.90;56.90;;;;;;5075019;28;20120;-69
2023/06/22 08:15:07;;;;;;;12.48;11.25;;;26.00;56.60;;;;;;5073972;28;20041;-69
2023/06/22 08:17:33;;;;;;;12.48;11.18;;;26.20;56.50;;;;;;5073532;28;20083;-69
2023/06/22 08:19:59;;;;;;;11.93;10.63;;;26.40;55.40;;;;;;5057008;28;20083;-69
2023/06/22 08:22:25;;;;;;;11.25;10.05;;;26.40;55.20;;;;;;5073591;28;20136;-69
2023/06/22 08:24:50;;;;;;;12.10;10.90;;;26.60;55.00;;;;;;5073530;28;20032;-69
2023/06/22 08:27:18;;;;;;;10.07;8.90;;;26.60;55.10;;;;;;5074782;28;20098;-69
2023/06/22 08:29:45;;;;;;;10.80;9.55;;;26.80;54.70;;;;;;5073427;28;20052;-69
2023/06/22 08:32:11;;;;;;;10.40;9.40;;;26.90;54.00;;;;;;5073536;28;20123;-69
2023/06/22 08:34:42;;;;;;;8.00;6.82;;;27.10;53.30;;;;;;5074762;28;20140;-69
2023/06/22 08:37:09;;;;;;;10.02;7.97;;;27.20;53.60;;;;;;5066073;28;20391;-69
2023/06/22 08:39:34;;;;;;;10.18;8.60;;;27.40;53.20;;;;;;5074730;28;20047;-69
2023/06/22 08:42:00;;;;;;;10.25;9.18;;;27.60;52.50;;;;;;5074437;28;20492;-69
2023/06/22 08:44:26;;;;;;;12.57;9.68;;;27.70;52.70;;;;;;5073500;28;21015;-69
2023/06/22 08:46:52;;;;;;;9.07;8.18;;;27.80;52.20;;;;;;5072971;28;20509;-69
2023/06/22 08:49:17;;;;;;;11.20;9.80;;;27.80;51.80;;;;;;5073242;28;20190;-68
2023/06/22 08:51:45;;;;;;;10.68;9.57;;;27.80;51.20;;;;;;5073051;28;20051;-68
2023/06/22 08:54:11;;;;;;;11.27;9.50;;;27.80;50.70;;;;;;5073047;28;20076;-69
2023/06/22 08:56:36;;;;;;;9.50;8.52;;;27.80;50.40;;;;;;5072137;28;20117;-69
2023/06/22 08:59:02;;;;;;;9.55;8.57;;;27.70;51.10;;;;;;5072966;28;20127;-69
2023/06/22 09:01:28;;;;;;;10.60;9.45;;;27.70;51.10;;;;;;5074433;28;20033;-69
2023/06/22 09:03:57;;;;;;;9.00;8.05;;;27.80;51.70;;;;;;5072593;28;20044;-69
2023/06/22 09:06:24;;;;;;;8.88;7.65;;;27.80;51.30;;;;;;5073135;28;20119;-69
2023/06/22 09:08:50;;;;;;;8.95;8.02;;;28.00;51.30;;;;;;5072919;28;20109;-69
2023/06/22 09:11:16;;;;;;;10.38;7.88;;;28.10;51.10;;;;;;5072751;28;20048;-69
2023/06/22 09:13:42;;;;;;;11.43;9.02;;;28.20;50.60;;;;;;5072633;28;20044;-69
2023/06/22 09:16:07;;;;;;;8.32;7.35;;;28.20;49.70;;;;;;5073598;28;20142;-69
2023/06/22 09:18:36;;;;;;;10.38;8.77;;;28.30;49.70;;;;;;5072298;28;20486;-69
2023/06/22 09:21:02;;;;;;;8.38;7.53;;;28.30;48.90;;;;;;5072426;28;20498;-69
2023/06/22 09:23:28;;;;;;;7.75;6.93;;;28.30;49.80;;;;;;5072476;28;20040;-69
2023/06/22 09:25:54;;;;;;;7.20;5.68;;;28.30;49.00;;;;;;5072443;28;20480;-69
2023/06/22 09:28:20;;;;;;;8.82;7.93;;;28.40;49.60;;;;;;5072395;28;20059;-69
2023/06/22 09:30:45;;;;;;;8.45;7.55;;;28.50;48.80;;;;;;5072406;28;20041;-69
2023/06/22 09:33:11;;;;;;;9.65;7.60;;;28.50;48.80;;;;;;5072440;28;20090;-69
2023/06/22 09:35:37;;;;;;;9.18;7.80;;;28.50;48.10;;;;;;5072328;28;20036;-69
2023/06/22 09:38:02;;;;;;;8.98;7.90;;;28.60;47.70;;;;;;5072462;28;20060;-69
2023/06/22 09:40:28;;;;;;;9.35;8.45;;;28.50;48.10;;;;;;5072314;28;20037;-69
2023/06/22 09:42:54;;;;;;;9.38;7.40;;;28.40;48.10;;;;;;5072015;28;20087;-69
2023/06/22 09:45:19;;;;;;;7.40;6.03;;;28.20;48.10;;;;;;5072137;28;20036;-69
2023/06/22 09:47:45;;;;;;;9.05;6.50;;;28.20;48.40;;;;;;5072152;28;20029;-69
2023/06/22 09:50:11;;;;;;;7.97;6.82;;;28.20;48.60;;;;;;5071907;28;20036;-69
2023/06/22 09:52:37;;;;;;;8.63;7.22;;;28.30;48.10;;;;;;5055294;28;20115;-69
2023/06/22 09:55:03;;;;;;;8.18;6.85;;;28.30;48.40;;;;;;5071906;28;20040;-69
2023/06/22 09:57:29;;;;;;;8.25;6.50;;;28.30;47.50;;;;;;5072131;28;20115;-69
2023/06/22 09:59:55;;;;;;;8.25;6.72;;;28.30;48.00;;;;;;5071714;28;20040;-69
2023/06/22 10:02:22;;;;;;;7.00;5.78;;;28.40;47.50;;;;;;5071838;28;20502;-69
2023/06/22 10:04:48;;;;;;;5.07;4.53;;;28.40;47.40;;;;;;5071916;28;20033;-69
2023/06/22 10:07:14;;;;;;;8.63;6.97;;;28.40;48.10;;;;;;5071438;28;20040;-69
2023/06/22 10:09:39;;;;;;;7.97;6.30;;;28.40;47.90;;;;;;5073121;28;20089;-69
2023/06/22 10:12:06;;;;;;;6.78;6.15;;;28.40;47.30;;;;;;5072534;28;20056;-69
2023/06/22 10:14:32;;;;;;;7.15;5.80;;;28.40;47.90;;;;;;5071348;28;20040;-69
2023/06/22 10:16:57;;;;;;;6.93;5.70;;;28.50;47.70;;;;;;5071581;28;20040;-69
2023/06/22 10:19:23;;;;;;;8.75;5.90;;;28.50;47.50;;;;;;5071144;28;20139;-69
2023/06/22 10:21:49;;;;;;;6.93;5.30;;;28.50;48.10;;;;;;5072921;28;20036;-69
2023/06/22 10:24:14;;;;;;;6.18;5.57;;;28.50;47.00;;;;;;5054816;28;20098;-69
2023/06/22 10:26:40;;;;;;;8.45;7.15;;;28.50;47.40;;;;;;5071521;28;20118;-69
2023/06/22 10:29:06;;;;;;;7.68;5.60;;;28.60;46.80;;;;;;5071538;28;20044;-69
2023/06/22 10:31:31;;;;;;;7.65;6.38;;;28.70;47.40;;;;;;5054595;28;20040;-69
2023/06/22 10:33:57;;;;;;;7.63;6.13;;;28.60;46.80;;;;;;5071439;28;20040;-69
2023/06/22 10:36:23;;;;;;;7.70;6.88;;;28.60;46.90;;;;;;5071381;28;20041;-69
2023/06/22 10:38:49;;;;;;;7.85;5.97;;;28.60;46.50;;;;;;5072263;28;20039;-69
2023/06/22 10:41:16;;;;;;;9.43;5.15;;;28.60;46.60;;;;;;5071374;28;20540;-69
2023/06/22 10:43:42;;;;;;;7.68;5.43;;;28.60;46.60;;;;;;5071387;28;20123;-69
2023/06/22 10:46:07;;;;;;;6.45;5.72;;;28.60;47.00;;;;;;5071427;28;20112;-69
2023/06/22 10:48:33;;;;;;;6.68;6.00;;;28.60;46.60;;;;;;5071056;28;20508;-69
2023/06/22 10:50:59;;;;;;;7.47;6.53;;;28.50;46.30;;;;;;5072435;28;20028;-69
2023/06/22 10:53:25;;;;;;;6.03;5.10;;;28.50;45.80;;;;;;5071319;28;20395;-69
2023/06/22 10:55:53;;;;;;;5.32;4.82;;;28.60;46.20;;;;;;5054387;28;20033;-69
2023/06/22 10:58:19;;;;;;;10.73;5.80;;;28.60;45.90;;;;;;5071063;28;20455;-69
2023/06/22 11:00:45;;;;;;;13.57;6.13;;;28.60;46.10;;;;;;5061228;28;20306;-69
2023/06/22 11:03:11;;;;;;;6.47;5.70;;;28.60;45.80;;;;;;5078655;28;20044;-69
2023/06/22 11:05:37;;;;;;;5.53;4.90;;;28.60;46.00;;;;;;5064627;28;20044;-69
2023/06/22 11:08:03;;;;;;;6.63;5.40;;;28.70;45.60;;;;;;5060036;28;20480;-69
2023/06/22 11:10:29;;;;;;;6.72;5.10;;;28.60;45.20;;;;;;5059154;28;20057;-68
2023/06/22 11:12:56;;;;;;;6.53;4.82;;;28.60;44.70;;;;;;5057547;28;20144;-68
2023/06/22 11:15:21;;;;;;;5.10;4.10;;;28.60;45.20;;;;;;5058424;28;20435;-69
2023/06/22 11:17:47;;;;;;;6.78;4.60;;;28.60;45.20;;;;;;5059039;28;20040;-69
2023/06/22 11:20:13;;;;;;;5.40;4.55;;;28.50;45.10;;;;;;5065611;28;20131;-69
2023/06/22 11:23:02;;;;;;;8.15;5.22;;;28.50;44.70;;;;;;5085134;28;20094;-69
2023/06/22 11:25:28;;;;;;;5.28;4.63;;;28.50;44.80;;;;;;5066085;28;20048;-68
2023/06/22 11:27:54;;;;;;;6.90;4.75;;;28.50;45.00;;;;;;5064264;28;20037;-68
2023/06/22 11:30:20;;;;;;;7.72;5.50;;;28.40;44.90;;;;;;5066810;28;20040;-68
2023/06/22 11:32:46;;;;;;;11.50;5.45;;;28.40;44.70;;;;;;5050440;28;20047;-68
2023/06/22 11:35:11;;;;;;;5.75;5.05;;;28.30;44.70;;;;;;5065291;28;20065;-68
2023/06/22 11:37:37;;;;;;;7.05;4.72;;;28.30;44.80;;;;;;5067604;28;20060;-68
2023/06/22 11:40:05;;;;;;;6.53;4.25;;;28.20;44.70;;;;;;5057592;28;20037;-68
2023/06/22 11:42:31;;;;;;;5.60;5.00;;;28.20;44.60;;;;;;5074374;28;20084;-68
2023/06/22 11:44:56;;;;;;;6.32;4.70;;;28.10;44.70;;;;;;5074405;28;20079;-68
2023/06/22 11:47:22;;;;;;;6.70;4.38;;;28.10;45.50;;;;;;5074426;28;20525;-68
2023/06/22 11:49:48;;;;;;;7.03;4.25;;;28.10;45.40;;;;;;5057292;28;20043;-68
2023/06/22 11:52:13;;;;;;;7.50;4.75;;;28.10;45.90;;;;;;5074272;28;20036;-68
2023/06/22 11:54:39;;;;;;;5.55;4.60;;;28.10;45.60;;;;;;5074318;28;20119;-68
2023/06/22 11:57:05;;;;;;;7.45;4.72;;;28.10;45.20;;;;;;5075537;28;20029;-68
2023/06/22 11:59:30;;;;;;;7.53;4.95;;;28.10;45.50;;;;;;5074154;28;20403;-68
2023/06/22 12:01:58;;;;;;;6.82;4.68;;;28.10;45.30;;;;;;5074174;28;20126;-68
2023/06/22 12:04:24;;;;;;;6.63;4.80;;;28.10;45.60;;;;;;5073900;28;20052;-68
2023/06/22 12:06:49;;;;;;;6.82;5.13;;;28.00;46.10;;;;;;5075211;28;20224;-68
2023/06/22 12:09:15;;;;;;;6.28;5.10;;;28.00;45.50;;;;;;5057689;28;20106;-68
2023/06/22 12:11:41;;;;;;;6.60;5.38;;;27.90;45.80;;;;;;5073991;28;20537;-68
2023/06/22 12:14:06;;;;;;;7.65;5.32;;;27.90;45.90;;;;;;5073782;28;20040;-68
2023/06/22 12:16:32;;;;;;;8.38;5.65;;;27.90;46.50;;;;;;5073923;28;20052;-68
2023/06/22 12:18:58;;;;;;;6.30;5.63;;;27.90;46.30;;;;;;5056764;28;20082;-68
2023/06/22 12:21:23;;;;;;;6.13;5.43;;;27.90;46.00;;;;;;5074024;28;20036;-68
2023/06/22 12:23:49;;;;;;;5.00;4.43;;;27.90;45.50;;;;;;5073447;28;20052;-68
2023/06/22 12:26:15;;;;;;;7.70;4.90;;;27.80;45.30;;;;;;5075185;28;20040;-68
2023/06/22 12:28:41;;;;;;;5.93;4.90;;;27.70;45.50;;;;;;5073611;28;20119;-68
2023/06/22 12:31:07;;;;;;;5.07;4.35;;;27.80;45.40;;;;;;5072356;28;20115;-68
2023/06/22 12:33:32;;;;;;;6.22;4.88;;;27.70;45.70;;;;;;5056958;28;20514;-68
2023/06/22 12:35:58;;;;;;;6.13;4.82;;;27.80;46.10;;;;;;5073505;28;20096;-68
2023/06/22 12:38:25;;;;;;;8.52;5.00;;;27.70;45.70;;;;;;5073595;28;20036;-68